TimeEDT,TemperatureF,Dew PointF,Humidity,Sea Level PressureIn,VisibilityMPH,Wind Direction,Wind SpeedMPH,Gust SpeedMPH,PrecipitationIn,Events,Conditions,WindDirDegrees,DateUTC
12:54 AM,48.9,19.0,31,30.09,10.0,WNW,11.5,-,N/A,,Overcast,300,2012-04-29 04:54:00
1:54 AM,48.0,19.9,33,30.09,10.0,NW,10.4,-,N/A,,Mostly Cloudy,320,2012-04-29 05:54:00
2:54 AM,45.0,19.9,37,30.09,10.0,North,8.1,-,N/A,,Partly Cloudy,360,2012-04-29 06:54:00
3:54 AM,42.1,19.0,40,30.09,10.0,North,5.8,-,N/A,,Mostly Cloudy,350,2012-04-29 07:54:00
4:54 AM,42.1,16.0,35,30.10,10.0,NNW,6.9,-,N/A,,Mostly Cloudy,340,2012-04-29 08:54:00
5:54 AM,43.0,16.0,34,30.11,10.0,NNW,4.6,-,N/A,,Mostly Cloudy,340,2012-04-29 09:54:00
6:54 AM,44.1,16.0,32,30.12,10.0,WNW,6.9,-,N/A,,Mostly Cloudy,300,2012-04-29 10:54:00
7:54 AM,46.9,15.1,28,30.11,10.0,WNW,8.1,-,N/A,,Scattered Clouds,300,2012-04-29 11:54:00
8:54 AM,48.0,17.1,29,30.11,10.0,West,9.2,-,N/A,,Scattered Clouds,280,2012-04-29 12:54:00
9:54 AM,50.0,17.1,27,30.09,10.0,West,11.5,17.3,N/A,,Clear,260,2012-04-29 13:54:00
10:54 AM,52.0,14.0,22,30.07,10.0,NW,17.3,23.0,N/A,,Scattered Clouds,310,2012-04-29 14:54:00
11:54 AM,53.1,14.0,21,30.04,10.0,WNW,17.3,24.2,N/A,,Scattered Clouds,300,2012-04-29 15:54:00
12:54 PM,55.0,15.1,21,30.02,10.0,West,10.4,24.2,N/A,,Scattered Clouds,280,2012-04-29 16:54:00
1:54 PM,57.0,14.0,18,30.00,10.0,WNW,16.1,28.8,N/A,,Scattered Clouds,300,2012-04-29 17:54:00
2:54 PM,57.9,12.0,16,30.00,10.0,WNW,23.0,34.5,N/A,,Scattered Clouds,290,2012-04-29 18:54:00
3:54 PM,57.9,14.0,18,29.99,10.0,NNW,17.3,29.9,N/A,,Scattered Clouds,340,2012-04-29 19:54:00
4:54 PM,57.9,10.0,15,30.00,10.0,NW,20.7,29.9,N/A,,Partly Cloudy,310,2012-04-29 20:54:00
5:54 PM,57.0,9.0,15,30.02,10.0,NNW,16.1,26.5,N/A,,Clear,330,2012-04-29 21:54:00
6:54 PM,55.0,6.1,14,30.05,10.0,NNW,17.3,28.8,N/A,,Clear,330,2012-04-29 22:54:00
7:54 PM,53.1,6.1,15,30.09,10.0,NNW,16.1,23.0,N/A,,Clear,340,2012-04-29 23:54:00
8:54 PM,50.0,9.0,19,30.14,10.0,North,15.0,21.9,N/A,,Clear,350,2012-04-30 00:54:00
9:54 PM,48.0,10.0,22,30.17,10.0,NNW,10.4,19.6,N/A,,Clear,340,2012-04-30 01:54:00
10:54 PM,46.9,12.0,24,30.19,10.0,NNW,9.2,-,N/A,,Clear,340,2012-04-30 02:54:00
11:54 PM,46.0,12.0,25,30.22,10.0,NW,10.4,-,N/A,,Clear,320,2012-04-30 03:54:00